createdAt,value
2024-04-30T00:00:39.574Z,1.52
2024-04-30T00:04:39.657Z,1.6
2024-04-30T00:08:39.141Z,2.42
2024-04-30T00:12:38.909Z,1.75
2024-04-30T00:16:39.495Z,2.08
2024-04-30T00:20:38.408Z,1.9
2024-04-30T00:24:40.222Z,2.5
2024-04-30T00:28:38.478Z,2.55
2024-04-30T00:32:39.762Z,2
2024-04-30T00:36:40.287Z,2.1
2024-04-30T00:40:40.376Z,2.37
2024-04-30T00:44:39.655Z,2
2024-04-30T00:48:40.191Z,2.3
2024-04-30T00:52:39.537Z,2.25
2024-04-30T00:56:40.348Z,2.42
2024-04-30T01:00:40.177Z,2.05
2024-04-30T01:04:38.642Z,2.1
2024-04-30T01:08:39.454Z,2.72
2024-04-30T01:12:38.898Z,2.3
2024-04-30T01:16:39.690Z,2.42
2024-04-30T01:20:40.070Z,2.08
2024-04-30T01:24:39.547Z,2.1
2024-04-30T01:28:38.961Z,2.72
2024-04-30T01:32:39.705Z,2.8
2024-04-30T01:36:40.206Z,2.75
2024-04-30T01:40:40.340Z,2.4
2024-04-30T01:44:39.730Z,1.92
2024-04-30T01:48:39.875Z,2.85
2024-04-30T01:52:39.924Z,3.08
2024-04-30T01:56:38.544Z,2.85
2024-04-30T02:00:39.565Z,3.62
2024-04-30T02:04:46.502Z,2.97
2024-04-30T02:08:40.409Z,3
2024-04-30T02:12:39.933Z,3.15
2024-04-30T02:16:39.669Z,3.22
2024-04-30T02:20:38.520Z,3.12
2024-04-30T02:24:40.130Z,3.4
2024-04-30T02:28:40.170Z,3.2
2024-04-30T02:32:40.262Z,4.05
2024-04-30T02:36:39.683Z,3.78
2024-04-30T02:40:40.271Z,4
2024-04-30T02:44:39.773Z,4.32
2024-04-30T02:48:39.604Z,5.18
2024-04-30T02:52:39.587Z,5.3
2024-04-30T02:56:39.881Z,5.12
2024-04-30T03:00:40.213Z,4.8
2024-04-30T03:04:40.104Z,4.65
2024-04-30T03:08:40.290Z,5.2
2024-04-30T03:12:40.394Z,5.5
2024-04-30T03:16:40.422Z,5.47
2024-04-30T03:20:39.432Z,5.53
2024-04-30T03:24:39.438Z,6.3
2024-04-30T03:28:40.312Z,5.93
2024-04-30T03:32:40.102Z,6.7
2024-04-30T03:36:39.519Z,6.97
2024-04-30T03:40:38.593Z,7.05
2024-04-30T03:44:38.466Z,7.35
2024-04-30T03:48:39.889Z,7.12
2024-04-30T03:52:39.788Z,7.4
2024-04-30T03:56:39.489Z,8.7
2024-04-30T04:00:38.846Z,7.68
2024-04-30T04:04:39.735Z,9.02
2024-04-30T04:08:39.708Z,8.3
2024-04-30T04:12:39.462Z,7.35
2024-04-30T04:16:39.014Z,7.8
2024-04-30T04:20:39.641Z,8.1
2024-04-30T04:24:39.428Z,6.87
2024-04-30T04:28:40.480Z,7.1
2024-04-30T04:32:39.915Z,6.57
2024-04-30T04:36:39.497Z,6.93
2024-04-30T04:40:39.589Z,6.62
2024-04-30T04:44:38.523Z,6.5
2024-04-30T04:48:39.620Z,6.82
2024-04-30T04:52:40.287Z,6.6
2024-04-30T04:56:38.509Z,7.1
2024-04-30T05:00:39.513Z,7.22
2024-04-30T05:04:38.685Z,7.05
2024-04-30T05:08:38.690Z,7.72
2024-04-30T05:12:39.585Z,6.87
2024-04-30T05:16:38.886Z,7.32
2024-04-30T05:20:39.454Z,7.12
2024-04-30T05:24:39.433Z,6.7
2024-04-30T05:28:40.447Z,7.12
2024-04-30T05:32:40.282Z,6.07
2024-04-30T05:36:40.169Z,5.97
2024-04-30T05:40:38.695Z,10.05
2024-04-30T05:44:40.290Z,6.72
2024-04-30T05:48:38.423Z,6.18
2024-04-30T05:52:38.586Z,6.3
2024-04-30T05:56:40.351Z,5.5
2024-04-30T06:00:39.503Z,5.57
2024-04-30T06:04:38.597Z,4.85
2024-04-30T06:08:41.629Z,5.22
2024-04-30T06:12:39.433Z,5.2
2024-04-30T06:16:40.222Z,3.78
2024-04-30T06:20:39.436Z,4.45
2024-04-30T06:24:38.815Z,4.28
2024-04-30T06:28:40.394Z,3.12
2024-04-30T06:32:39.606Z,3.6
2024-04-30T06:36:40.184Z,2.85
2024-04-30T06:40:38.937Z,2.83
2024-04-30T06:44:40.248Z,2.8
2024-04-30T06:48:39.794Z,3.4
2024-04-30T06:52:38.643Z,2.5
2024-04-30T06:56:39.560Z,2.6
2024-04-30T07:00:40.349Z,2.72
2024-04-30T07:04:39.603Z,2.62
2024-04-30T07:08:40.233Z,2.65
2024-04-30T07:12:38.563Z,1.87
2024-04-30T07:16:45.962Z,2
2024-04-30T07:20:40.323Z,2.03
2024-04-30T07:24:39.584Z,2.17
2024-04-30T07:28:39.571Z,1.7
2024-04-30T07:32:39.657Z,1.65
2024-04-30T07:36:40.331Z,2.15
2024-04-30T07:40:40.305Z,1.9
2024-04-30T07:44:38.607Z,2.1
2024-04-30T07:48:39.494Z,1.6
2024-04-30T07:52:40.485Z,1.85
2024-04-30T07:56:39.600Z,2.15
2024-04-30T08:00:40.345Z,1.7
2024-04-30T08:04:39.679Z,1.77
2024-04-30T08:08:38.603Z,1.98
2024-04-30T08:12:39.449Z,1.83
2024-04-30T08:16:40.274Z,2.95
2024-04-30T08:20:40.339Z,2.12
2024-04-30T08:24:39.941Z,2
2024-04-30T08:28:39.982Z,1.87
2024-04-30T08:32:38.807Z,1.7
2024-04-30T08:36:39.510Z,2.15
2024-04-30T08:40:40.396Z,2.03
2024-04-30T08:44:39.506Z,2.03
2024-04-30T08:48:40.130Z,2.33
2024-04-30T08:52:38.769Z,1.67
2024-04-30T08:56:39.619Z,2.35
2024-04-30T09:00:40.212Z,2
2024-04-30T09:04:40.223Z,1.83
2024-04-30T09:08:40.398Z,1.45
2024-04-30T09:12:38.678Z,1.6
2024-04-30T09:16:43.066Z,1.83
2024-04-30T09:20:40.110Z,1.2
2024-04-30T09:24:38.891Z,1.75
2024-04-30T09:28:39.740Z,1.25
2024-04-30T09:32:39.506Z,1.33
2024-04-30T09:36:39.764Z,1.58
2024-04-30T09:40:39.995Z,2.1
2024-04-30T09:44:38.395Z,1.5
2024-04-30T09:48:38.498Z,1.8
2024-04-30T09:52:38.601Z,1.77
2024-04-30T09:56:40.126Z,1.58
2024-04-30T10:00:39.747Z,1.35
2024-04-30T10:04:40.451Z,2.17
2024-04-30T10:08:39.445Z,1.7
2024-04-30T10:12:38.883Z,1.77
2024-04-30T10:16:40.267Z,2.08
2024-04-30T10:20:39.527Z,1.73
2024-04-30T10:24:38.768Z,1.35
2024-04-30T10:28:39.723Z,1.83
2024-04-30T10:32:40.345Z,1.35
2024-04-30T10:36:40.150Z,1.6
2024-04-30T10:40:40.378Z,1.87
2024-04-30T10:44:39.297Z,1.58
2024-04-30T10:48:40.394Z,1.62
2024-04-30T10:52:38.896Z,1.52
2024-04-30T10:56:39.515Z,2.6
2024-04-30T11:00:38.502Z,1.7
2024-04-30T11:04:40.429Z,1.42
2024-04-30T11:08:40.222Z,2.22
2024-04-30T11:12:39.753Z,2.53
2024-04-30T11:16:40.289Z,3.08
2024-04-30T11:20:39.556Z,1.15
2024-04-30T11:24:39.798Z,1.3
2024-04-30T11:28:40.283Z,1.67
2024-04-30T11:32:40.455Z,1.8
2024-04-30T11:36:40.143Z,2.08
2024-04-30T11:40:40.192Z,1.62
2024-04-30T11:44:40.177Z,1.6
2024-04-30T11:48:40.519Z,1.48
2024-04-30T11:52:40.287Z,1.92
2024-04-30T11:56:39.865Z,1.4
2024-04-30T12:00:40.595Z,1.92
2024-04-30T12:04:39.964Z,1.17
2024-04-30T12:08:39.631Z,1.45
2024-04-30T12:12:40.304Z,2.08
2024-04-30T12:16:41.206Z,1.55
2024-04-30T12:20:40.010Z,2.03
2024-04-30T12:24:39.453Z,1.37
2024-04-30T12:28:40.283Z,1.65
2024-04-30T12:32:39.878Z,1.5
2024-04-30T12:36:39.538Z,2.2
2024-04-30T12:40:40.255Z,1.8
2024-04-30T12:44:39.911Z,1.73
2024-04-30T12:48:39.681Z,1.8
2024-04-30T12:52:40.370Z,1.52
2024-04-30T12:56:39.994Z,1.37
2024-04-30T13:00:39.710Z,1.98
2024-04-30T13:04:39.870Z,1.6
2024-04-30T13:08:39.521Z,1.52
2024-04-30T13:12:40.218Z,1.6
2024-04-30T13:16:40.142Z,1.7
2024-04-30T13:20:39.671Z,1.77
2024-04-30T13:24:39.416Z,1.3
2024-04-30T13:28:40.220Z,1.2
2024-04-30T13:32:39.941Z,1.3
2024-04-30T13:36:39.554Z,1.15
2024-04-30T13:40:40.402Z,1.27
2024-04-30T13:44:39.960Z,1.75
2024-04-30T13:48:39.760Z,2.1
2024-04-30T13:52:39.450Z,1.37
2024-04-30T13:56:40.058Z,1.77
2024-04-30T14:00:39.832Z,1.73
2024-04-30T14:04:40.065Z,0.95
2024-04-30T14:08:39.687Z,1.45
2024-04-30T14:12:39.924Z,1.85
2024-04-30T14:16:39.808Z,1.1
2024-04-30T14:20:40.346Z,1.33
2024-04-30T14:24:39.992Z,1.45
2024-04-30T14:28:39.758Z,1.2
2024-04-30T14:32:40.516Z,1.23
2024-04-30T14:36:40.189Z,1.33
2024-04-30T14:40:39.843Z,1.05
2024-04-30T14:44:39.505Z,1.27
2024-04-30T14:48:40.236Z,1.27
2024-04-30T14:52:39.902Z,1.27
2024-04-30T14:56:39.569Z,1.95
2024-04-30T15:00:40.297Z,1.45
2024-04-30T15:04:39.594Z,1.37
2024-04-30T15:08:40.244Z,0.8
2024-04-30T15:12:39.869Z,1.55
2024-04-30T15:16:39.594Z,1.17
2024-04-30T15:20:40.315Z,1.42
2024-04-30T15:24:39.968Z,1.62
2024-04-30T15:28:40.048Z,1.23
2024-04-30T15:32:40.806Z,1.2
2024-04-30T15:36:40.098Z,1.2
2024-04-30T15:40:39.871Z,1.35
2024-04-30T15:44:39.508Z,1.2
2024-04-30T15:48:40.252Z,1.4
2024-04-30T15:52:39.995Z,1.27
2024-04-30T15:56:46.515Z,1.27
2024-04-30T16:00:40.389Z,1.62
2024-04-30T16:04:39.538Z,1.17
2024-04-30T16:08:40.138Z,1.27
2024-04-30T16:12:39.834Z,1.5
2024-04-30T16:16:39.517Z,1.48
2024-04-30T16:20:40.201Z,1.75
2024-04-30T16:24:39.895Z,1.62
2024-04-30T16:28:39.642Z,1.25
2024-04-30T16:32:40.486Z,1.67
2024-04-30T16:36:39.998Z,1.35
2024-04-30T16:40:39.663Z,1.08
2024-04-30T16:44:44.954Z,1.3
2024-04-30T16:48:40.192Z,1.1
2024-04-30T16:52:39.759Z,2.15
2024-04-30T16:56:39.416Z,1.17
2024-04-30T17:00:40.265Z,1.1
2024-04-30T17:04:39.554Z,1.02
2024-04-30T17:08:40.116Z,1.37
2024-04-30T17:12:39.888Z,1.37
2024-04-30T17:16:39.558Z,1.37
2024-04-30T17:20:40.253Z,1.15
2024-04-30T17:24:39.988Z,1.52
2024-04-30T17:28:39.642Z,1.62
2024-04-30T17:32:40.357Z,1.83
2024-04-30T17:36:40.114Z,1.8
2024-04-30T17:40:39.742Z,1.5
2024-04-30T17:44:39.398Z,1.45
2024-04-30T17:48:40.162Z,1.55
2024-04-30T17:52:39.752Z,1.67
2024-04-30T17:56:39.452Z,1.83
2024-04-30T18:00:40.264Z,1.55
2024-04-30T18:04:40.388Z,2
2024-04-30T18:08:40.080Z,1.65
2024-04-30T18:12:40.240Z,1.85
2024-04-30T18:16:39.634Z,2.22
2024-04-30T18:20:40.326Z,2.58
2024-04-30T18:24:40.057Z,1.9
2024-04-30T18:28:39.686Z,2
2024-04-30T18:32:40.413Z,2.78
2024-04-30T18:36:40.151Z,1.7
2024-04-30T18:40:39.824Z,1.95
2024-04-30T18:44:39.506Z,1.8
2024-04-30T18:48:40.346Z,1.9
2024-04-30T18:52:39.899Z,2
2024-04-30T18:56:39.639Z,1.83
2024-04-30T19:00:40.340Z,2.08
2024-04-30T19:04:39.662Z,2.03
2024-04-30T19:08:40.194Z,1.9
2024-04-30T19:12:39.933Z,1.9
2024-04-30T19:16:39.590Z,2.12
2024-04-30T19:20:40.247Z,2.62
2024-04-30T19:24:39.965Z,1.85
2024-04-30T19:28:39.635Z,2.22
2024-04-30T19:32:40.374Z,2.3
2024-04-30T19:36:40.078Z,2.15
2024-04-30T19:40:39.729Z,2.92
2024-04-30T19:44:39.416Z,2.53
2024-04-30T19:48:40.216Z,2.33
2024-04-30T19:52:39.759Z,3.1
2024-04-30T19:56:39.430Z,3.35
2024-04-30T20:00:40.219Z,2.92
2024-04-30T20:04:40.430Z,3.35
2024-04-30T20:08:40.057Z,3.12
2024-04-30T20:12:39.790Z,2.97
2024-04-30T20:16:39.465Z,3.65
2024-04-30T20:20:40.252Z,4.43
2024-04-30T20:24:39.965Z,4.1
2024-04-30T20:28:39.564Z,5.53
2024-04-30T20:32:41.151Z,7.03
2024-04-30T20:36:39.936Z,6.25
2024-04-30T20:40:39.673Z,8.07
2024-04-30T20:44:40.400Z,8.6
2024-04-30T20:48:40.280Z,6.05
2024-04-30T20:52:39.819Z,4.9
2024-04-30T20:56:39.437Z,4.37
2024-04-30T21:00:40.296Z,5.4
2024-04-30T21:04:39.520Z,4.07
2024-04-30T21:08:40.148Z,4.32
2024-04-30T21:12:39.821Z,4.47
2024-04-30T21:16:39.549Z,4.28
2024-04-30T21:20:40.227Z,4.5
2024-04-30T21:24:39.944Z,5.37
2024-04-30T21:28:39.626Z,6.43
2024-04-30T21:32:40.503Z,5.18
2024-04-30T21:36:42.173Z,4.68
2024-04-30T21:40:39.692Z,5.37
2024-04-30T21:44:40.353Z,5.43
2024-04-30T21:48:40.115Z,5.22
2024-04-30T21:52:39.729Z,5.25
2024-04-30T21:56:39.774Z,5.03
2024-04-30T22:00:40.358Z,4.82
2024-04-30T22:04:39.025Z,4.97
2024-04-30T22:08:40.200Z,5.9
2024-04-30T22:12:39.519Z,6.5
2024-04-30T22:16:38.722Z,6.12
2024-04-30T22:20:40.389Z,6.05
2024-04-30T22:24:40.291Z,5.7
2024-04-30T22:28:40.218Z,5.22
2024-04-30T22:32:39.524Z,4.87
2024-04-30T22:36:40.366Z,4.65
2024-04-30T22:40:40.354Z,4.43
2024-04-30T22:44:38.613Z,4.12
2024-04-30T22:48:39.528Z,4.2
2024-04-30T22:52:39.893Z,3.72
2024-04-30T22:56:39.507Z,5.1
2024-04-30T23:00:39.826Z,4.62
2024-04-30T23:04:40.187Z,4.5
2024-04-30T23:08:40.142Z,4.1
2024-04-30T23:12:39.633Z,3.8
2024-04-30T23:16:39.602Z,5.03
2024-04-30T23:20:39.591Z,6.47
2024-04-30T23:24:39.431Z,7.65
2024-04-30T23:28:39.398Z,7.8
2024-04-30T23:32:38.645Z,6.95
2024-04-30T23:36:40.182Z,6.28
2024-04-30T23:40:40.324Z,6.25
2024-04-30T23:44:40.292Z,5.45
2024-04-30T23:48:39.524Z,4.85
2024-04-30T23:52:38.909Z,4.4
2024-04-30T23:56:40.227Z,4.28
